createdAt,value
2017-10-05T00:00:42.394Z,19.40
2017-10-05T00:01:47.545Z,19.40
2017-10-05T00:02:52.252Z,19.40
2017-10-05T00:03:57.116Z,19.40
2017-10-05T00:05:02.042Z,19.40
2017-10-05T00:06:06.859Z,19.40
2017-10-05T00:07:11.860Z,19.40
2017-10-05T00:08:16.573Z,19.40
2017-10-05T00:09:21.184Z,19.40
2017-10-05T00:10:26.239Z,19.40
2017-10-05T00:11:31.108Z,19.40
2017-10-05T00:12:35.946Z,19.40
2017-10-05T00:13:40.744Z,19.40
2017-10-05T00:14:45.615Z,19.40
2017-10-05T00:15:50.519Z,19.40
2017-10-05T00:16:55.179Z,19.40
2017-10-05T00:17:59.952Z,19.40
2017-10-05T00:19:04.795Z,19.40
2017-10-05T00:20:09.631Z,19.40
2017-10-05T00:21:14.368Z,19.40
2017-10-05T00:22:19.214Z,19.40
2017-10-05T00:23:23.914Z,19.40
2017-10-05T00:24:28.893Z,19.40
2017-10-05T00:25:33.610Z,19.40
2017-10-05T00:26:38.310Z,19.40
2017-10-05T00:27:43.000Z,19.40
2017-10-05T00:28:47.702Z,19.40
2017-10-05T00:29:53.253Z,19.40
2017-10-05T00:30:58.082Z,19.40
2017-10-05T00:32:02.720Z,19.40
2017-10-05T00:33:07.569Z,19.40
2017-10-05T00:34:12.152Z,19.40
2017-10-05T00:35:16.796Z,19.40
2017-10-05T00:36:21.619Z,19.40
2017-10-05T00:37:26.355Z,19.40
2017-10-05T00:38:31.006Z,19.40
2017-10-05T00:39:35.844Z,19.40
2017-10-05T00:40:40.756Z,19.40
2017-10-05T00:41:45.381Z,19.40
2017-10-05T00:42:49.999Z,19.40
2017-10-05T00:43:54.772Z,19.40
2017-10-05T00:44:59.673Z,19.40
2017-10-05T00:46:04.502Z,19.40
2017-10-05T00:47:09.333Z,19.40
2017-10-05T00:48:14.178Z,19.40
2017-10-05T00:49:18.908Z,19.40
2017-10-05T00:50:23.682Z,19.40
2017-10-05T00:51:28.693Z,19.40
2017-10-05T00:52:33.567Z,19.40
2017-10-05T00:53:38.665Z,19.40
2017-10-05T00:54:43.719Z,19.40
2017-10-05T00:55:48.508Z,19.40
2017-10-05T00:56:53.691Z,19.40
2017-10-05T00:57:58.637Z,19.40
2017-10-05T00:59:03.479Z,19.40
2017-10-05T01:00:08.409Z,19.40
2017-10-05T01:01:13.028Z,19.40
2017-10-05T01:02:17.822Z,19.40
2017-10-05T01:03:22.674Z,19.40
2017-10-05T01:04:27.299Z,19.40
2017-10-05T01:05:32.030Z,19.40
2017-10-05T01:06:36.983Z,19.40
2017-10-05T01:07:41.624Z,19.40
2017-10-05T01:08:46.271Z,19.40
2017-10-05T01:09:51.255Z,19.40
2017-10-05T01:10:55.928Z,19.30
2017-10-05T01:12:00.779Z,19.40
2017-10-05T01:13:05.594Z,19.40
2017-10-05T01:14:10.515Z,19.40
2017-10-05T01:15:15.337Z,19.40
2017-10-05T01:16:19.953Z,19.40
2017-10-05T01:17:24.741Z,19.30
2017-10-05T01:18:29.716Z,19.30
2017-10-05T01:19:34.653Z,19.40
2017-10-05T01:20:39.455Z,19.40
2017-10-05T01:21:44.163Z,19.30
2017-10-05T01:22:48.940Z,19.30
2017-10-05T01:23:53.815Z,19.30
2017-10-05T01:24:58.758Z,19.30
2017-10-05T01:26:03.455Z,19.30
2017-10-05T01:27:08.987Z,19.30
2017-10-05T01:28:13.876Z,19.30
2017-10-05T01:29:18.581Z,19.30
2017-10-05T01:30:23.421Z,19.30
2017-10-05T01:31:28.242Z,19.30
2017-10-05T01:32:32.899Z,19.30
2017-10-05T01:33:37.947Z,19.30
2017-10-05T01:34:42.705Z,19.30
2017-10-05T01:35:47.379Z,19.30
2017-10-05T01:36:52.172Z,19.30
2017-10-05T01:37:57.228Z,19.30
2017-10-05T01:39:02.028Z,19.30
2017-10-05T01:40:06.642Z,19.30
2017-10-05T01:41:11.642Z,19.30
2017-10-05T01:42:16.652Z,19.30
2017-10-05T01:43:21.424Z,19.30
2017-10-05T01:44:26.024Z,19.30
2017-10-05T01:45:30.783Z,19.30
2017-10-05T01:46:35.826Z,19.30
2017-10-05T01:47:40.412Z,19.30
2017-10-05T01:48:45.393Z,19.30
2017-10-05T01:49:50.492Z,19.30
2017-10-05T01:50:55.373Z,19.30
2017-10-05T01:52:00.436Z,19.30
2017-10-05T01:53:05.566Z,19.30
2017-10-05T01:54:10.319Z,19.30
2017-10-05T01:55:15.215Z,19.30
2017-10-05T01:56:20.149Z,19.30
2017-10-05T01:57:25.134Z,19.30
2017-10-05T01:58:29.950Z,19.30
2017-10-05T01:59:34.791Z,19.30
2017-10-05T02:00:39.400Z,19.30
2017-10-05T02:01:44.145Z,19.30
2017-10-05T02:02:49.030Z,19.30
2017-10-05T02:03:53.832Z,19.30
2017-10-05T02:04:58.458Z,19.30
2017-10-05T02:06:03.048Z,19.30
2017-10-05T02:07:07.884Z,19.30
2017-10-05T02:08:12.748Z,19.30
2017-10-05T02:09:17.623Z,19.30
2017-10-05T02:10:22.609Z,19.30
2017-10-05T02:11:27.393Z,19.30
2017-10-05T02:12:32.431Z,19.30
2017-10-05T02:13:37.505Z,19.30
2017-10-05T02:14:42.807Z,19.30
2017-10-05T02:15:47.716Z,19.30
2017-10-05T02:16:52.784Z,19.30
2017-10-05T02:17:57.541Z,19.30
2017-10-05T02:19:02.424Z,19.30
2017-10-05T02:20:07.288Z,19.30
2017-10-05T02:21:11.986Z,19.30
2017-10-05T02:22:16.998Z,19.30
2017-10-05T02:23:21.959Z,19.30
2017-10-05T02:24:26.704Z,19.30
2017-10-05T02:25:31.657Z,19.30
2017-10-05T02:26:36.548Z,19.30
2017-10-05T02:27:41.264Z,19.30
2017-10-05T02:28:45.969Z,19.30
2017-10-05T02:29:50.632Z,19.30
2017-10-05T02:30:55.454Z,19.30
2017-10-05T02:32:00.254Z,19.30
2017-10-05T02:33:05.413Z,19.30
2017-10-05T02:34:10.423Z,19.30
2017-10-05T02:35:15.364Z,19.30
2017-10-05T02:36:20.033Z,19.30
2017-10-05T02:37:24.844Z,19.30
2017-10-05T02:38:29.761Z,19.30
2017-10-05T02:39:35.131Z,19.30
2017-10-05T02:40:40.133Z,19.30
2017-10-05T02:41:44.749Z,19.30
2017-10-05T02:42:49.523Z,19.30
2017-10-05T02:43:54.169Z,19.30
2017-10-05T02:44:58.988Z,19.30
2017-10-05T02:46:04.066Z,19.30
2017-10-05T02:47:09.039Z,19.30
2017-10-05T02:48:13.895Z,19.30
2017-10-05T02:49:18.795Z,19.30
2017-10-05T02:50:23.784Z,19.30
2017-10-05T02:51:28.576Z,19.30
2017-10-05T02:52:33.270Z,19.30
2017-10-05T02:53:38.067Z,19.30
2017-10-05T02:54:42.756Z,19.30
2017-10-05T02:55:47.623Z,19.30
2017-10-05T02:56:52.397Z,19.30
2017-10-05T02:57:57.055Z,19.30
2017-10-05T02:59:01.685Z,19.30
2017-10-05T03:00:06.474Z,19.30
2017-10-05T03:01:11.167Z,19.30
2017-10-05T03:02:15.914Z,19.30
2017-10-05T03:03:20.845Z,19.30
2017-10-05T03:04:25.757Z,19.30
2017-10-05T03:05:30.590Z,19.30
2017-10-05T03:06:35.461Z,19.30
2017-10-05T03:07:40.053Z,19.30
2017-10-05T03:08:44.997Z,19.30
2017-10-05T03:09:49.721Z,19.30
2017-10-05T03:10:54.341Z,19.30
2017-10-05T03:11:59.278Z,19.30
2017-10-05T03:13:04.095Z,19.30
2017-10-05T03:14:08.975Z,19.30
2017-10-05T03:15:13.837Z,19.30
2017-10-05T03:16:18.641Z,19.30
2017-10-05T03:17:23.522Z,19.30
2017-10-05T03:18:28.664Z,19.30
2017-10-05T03:19:33.455Z,19.30
2017-10-05T03:20:38.672Z,19.20
2017-10-05T03:21:43.737Z,19.30
2017-10-05T03:22:48.760Z,19.30
2017-10-05T03:23:54.107Z,19.30
2017-10-05T03:24:59.028Z,19.30
2017-10-05T03:26:04.688Z,19.30
2017-10-05T03:27:09.540Z,19.30
2017-10-05T03:28:14.350Z,19.30
2017-10-05T03:29:19.522Z,19.30
2017-10-05T03:30:24.719Z,19.30
2017-10-05T03:31:29.551Z,19.30
2017-10-05T03:32:34.583Z,19.30
2017-10-05T03:33:39.600Z,19.30
2017-10-05T03:34:44.894Z,19.30
2017-10-05T03:35:50.196Z,19.30
2017-10-05T03:36:55.121Z,19.30
2017-10-05T03:38:00.306Z,19.30
2017-10-05T03:39:05.327Z,19.30
2017-10-05T03:40:10.571Z,19.30
2017-10-05T03:41:15.727Z,19.30
2017-10-05T03:42:20.608Z,19.30
2017-10-05T03:43:25.519Z,19.30
2017-10-05T03:44:30.619Z,19.30
2017-10-05T03:45:35.518Z,19.30
2017-10-05T03:46:40.505Z,19.30
2017-10-05T03:47:45.609Z,19.30
2017-10-05T03:48:50.656Z,19.30
2017-10-05T03:49:55.658Z,19.30
2017-10-05T03:51:00.675Z,19.30
2017-10-05T03:52:05.993Z,19.30
2017-10-05T03:53:11.015Z,19.30
2017-10-05T03:54:16.002Z,19.30
2017-10-05T03:55:21.112Z,19.30
2017-10-05T03:56:26.009Z,19.30
2017-10-05T03:57:30.958Z,19.30
2017-10-05T03:58:36.051Z,19.30
2017-10-05T03:59:40.948Z,19.30
2017-10-05T04:00:45.962Z,19.30
2017-10-05T04:01:51.013Z,19.30
2017-10-05T04:02:56.192Z,19.30
2017-10-05T04:04:01.437Z,19.30
2017-10-05T04:05:06.496Z,19.30
2017-10-05T04:06:11.470Z,19.30
2017-10-05T04:07:16.696Z,19.30
2017-10-05T04:08:21.706Z,19.30
2017-10-05T04:09:26.898Z,19.30
2017-10-05T04:10:31.697Z,19.30
2017-10-05T04:11:36.621Z,19.30
2017-10-05T04:12:41.427Z,19.30
2017-10-05T04:13:46.360Z,19.30
2017-10-05T04:14:51.273Z,19.30
2017-10-05T04:15:56.148Z,19.30
2017-10-05T04:17:01.352Z,19.30
2017-10-05T04:18:06.247Z,19.30
2017-10-05T04:19:11.337Z,19.30
2017-10-05T04:20:16.356Z,19.30
2017-10-05T04:21:21.214Z,19.30
2017-10-05T04:22:26.027Z,19.30
2017-10-05T04:23:30.791Z,19.30
2017-10-05T04:24:35.731Z,19.30
2017-10-05T04:25:40.736Z,19.30
2017-10-05T04:26:45.775Z,19.30
2017-10-05T04:27:50.924Z,19.30
2017-10-05T04:28:56.184Z,19.30
2017-10-05T04:30:01.333Z,19.20
2017-10-05T04:31:06.504Z,19.30
2017-10-05T04:32:11.487Z,19.30
2017-10-05T04:33:16.792Z,19.30
2017-10-05T04:34:22.121Z,19.30
2017-10-05T04:35:27.170Z,19.30
2017-10-05T04:36:32.216Z,19.30
2017-10-05T04:37:37.065Z,19.20
2017-10-05T04:38:42.205Z,19.30
2017-10-05T04:39:47.363Z,19.30
2017-10-05T04:40:52.479Z,19.20
2017-10-05T04:41:57.598Z,19.20
2017-10-05T04:43:02.839Z,19.30
2017-10-05T04:44:07.913Z,19.20
2017-10-05T04:45:12.892Z,19.20
2017-10-05T04:46:18.315Z,19.20
2017-10-05T04:47:23.718Z,19.20
2017-10-05T04:48:28.744Z,19.20
2017-10-05T04:49:33.869Z,19.20
2017-10-05T04:50:39.148Z,19.30
2017-10-05T04:51:44.409Z,19.20
2017-10-05T04:52:49.285Z,19.20
2017-10-05T04:53:54.465Z,19.20
2017-10-05T04:54:59.653Z,19.20
2017-10-05T04:56:04.799Z,19.20
2017-10-05T04:57:10.358Z,19.20
2017-10-05T04:58:15.178Z,19.20
2017-10-05T04:59:20.195Z,19.20
2017-10-05T05:00:25.088Z,19.20
2017-10-05T05:01:30.239Z,19.20
2017-10-05T05:02:35.228Z,19.20
2017-10-05T05:03:40.033Z,19.20
2017-10-05T05:04:45.301Z,19.20
2017-10-05T05:05:50.437Z,19.20
2017-10-05T05:06:55.443Z,19.20
2017-10-05T05:08:00.470Z,19.20
2017-10-05T05:09:05.614Z,19.20
2017-10-05T05:10:10.668Z,19.20
2017-10-05T05:11:16.378Z,19.20
2017-10-05T05:12:21.711Z,19.20
2017-10-05T05:13:26.980Z,19.20
2017-10-05T05:14:32.157Z,19.20
2017-10-05T05:15:37.333Z,19.20
2017-10-05T05:16:42.374Z,19.20
2017-10-05T05:17:47.566Z,19.20
2017-10-05T05:18:52.712Z,19.20
2017-10-05T05:19:57.703Z,19.20
2017-10-05T05:21:03.007Z,19.20
2017-10-05T05:22:08.135Z,19.20
2017-10-05T05:23:13.178Z,19.20
2017-10-05T05:24:18.279Z,19.20
2017-10-05T05:25:23.169Z,19.20
2017-10-05T05:26:28.329Z,19.20
2017-10-05T05:27:33.630Z,19.20
2017-10-05T05:28:38.524Z,19.20
2017-10-05T05:29:43.532Z,19.20
2017-10-05T05:30:48.766Z,19.20
2017-10-05T05:31:53.823Z,19.20
2017-10-05T05:32:58.990Z,19.20
2017-10-05T05:34:04.158Z,19.30
2017-10-05T05:35:09.222Z,19.20
2017-10-05T05:36:14.063Z,19.20
2017-10-05T05:37:19.064Z,19.20
2017-10-05T05:38:24.126Z,19.20
2017-10-05T05:39:29.356Z,19.20
2017-10-05T05:40:34.630Z,19.20
2017-10-05T05:41:39.938Z,19.20
2017-10-05T05:42:45.083Z,19.20
2017-10-05T05:43:50.004Z,19.20
2017-10-05T05:44:55.094Z,19.20
2017-10-05T05:46:00.229Z,19.20
2017-10-05T05:47:05.332Z,19.20
2017-10-05T05:48:10.581Z,19.20
2017-10-05T05:49:15.708Z,19.20
2017-10-05T05:50:20.740Z,19.20
2017-10-05T05:51:26.711Z,19.20
2017-10-05T05:52:31.979Z,19.20
2017-10-05T05:53:37.073Z,19.20
2017-10-05T05:54:42.681Z,19.20
2017-10-05T05:55:48.293Z,19.20
2017-10-05T05:56:55.322Z,19.20
2017-10-05T05:58:00.785Z,19.20
2017-10-05T05:59:05.964Z,19.20
2017-10-05T06:00:11.413Z,19.20
2017-10-05T06:01:16.879Z,19.20
2017-10-05T06:02:21.907Z,19.20
2017-10-05T06:03:26.989Z,19.20
2017-10-05T06:04:32.136Z,19.20
2017-10-05T06:05:37.197Z,19.20
2017-10-05T06:06:42.363Z,19.20
2017-10-05T06:07:47.553Z,19.20
2017-10-05T06:08:52.770Z,19.20
2017-10-05T06:09:57.860Z,19.20
2017-10-05T06:11:03.090Z,19.20
2017-10-05T06:12:08.307Z,19.20
2017-10-05T06:13:13.769Z,19.20
2017-10-05T06:14:18.986Z,19.20
2017-10-05T06:15:24.156Z,19.20
2017-10-05T06:16:29.823Z,19.20
2017-10-05T06:17:35.228Z,19.20
2017-10-05T06:18:40.568Z,19.20
2017-10-05T06:19:45.602Z,19.20
2017-10-05T06:20:50.754Z,19.20
2017-10-05T06:21:55.888Z,19.20
2017-10-05T06:23:00.823Z,19.30
2017-10-05T06:24:05.829Z,19.30
2017-10-05T06:25:10.813Z,19.30
2017-10-05T06:26:16.425Z,19.30
2017-10-05T06:27:21.319Z,19.30
2017-10-05T06:28:26.206Z,19.30
2017-10-05T06:29:31.246Z,19.30
2017-10-05T06:30:36.797Z,19.30
2017-10-05T06:31:42.069Z,19.30
2017-10-05T06:32:47.012Z,19.30
2017-10-05T06:33:52.125Z,19.30
2017-10-05T06:34:57.720Z,19.30
2017-10-05T06:36:02.726Z,19.30
2017-10-05T06:37:07.952Z,19.30
2017-10-05T06:38:13.180Z,19.30
2017-10-05T06:39:18.388Z,19.30
2017-10-05T06:40:23.425Z,19.30
2017-10-05T06:41:28.397Z,19.30
2017-10-05T06:42:33.745Z,19.30
2017-10-05T06:43:38.989Z,19.30
2017-10-05T06:44:44.013Z,19.30
2017-10-05T06:45:49.159Z,19.30
2017-10-05T06:46:54.225Z,19.30
2017-10-05T06:47:59.250Z,19.30
2017-10-05T06:49:04.599Z,19.30
2017-10-05T06:50:10.289Z,19.30
2017-10-05T06:51:15.327Z,19.30
2017-10-05T06:52:20.242Z,19.30
2017-10-05T06:53:25.273Z,19.20
2017-10-05T06:54:30.436Z,19.20
2017-10-05T06:55:35.678Z,19.20
2017-10-05T06:56:40.810Z,19.30
2017-10-05T06:57:45.987Z,19.20
2017-10-05T06:58:50.875Z,19.20
2017-10-05T06:59:55.754Z,19.20
2017-10-05T07:01:00.702Z,19.20
2017-10-05T07:02:05.732Z,19.20
2017-10-05T07:03:10.729Z,19.20
2017-10-05T07:04:15.751Z,19.20
2017-10-05T07:05:20.979Z,19.20
2017-10-05T07:06:25.859Z,19.20
2017-10-05T07:07:30.994Z,19.20
2017-10-05T07:08:36.181Z,19.20
2017-10-05T07:09:41.247Z,19.20
2017-10-05T07:10:46.452Z,19.20
2017-10-05T07:11:51.574Z,19.20
2017-10-05T07:12:56.641Z,19.20
2017-10-05T07:14:01.862Z,19.20
2017-10-05T07:15:06.902Z,19.20
2017-10-05T07:16:12.118Z,19.20
2017-10-05T07:17:17.061Z,19.20
2017-10-05T07:18:22.063Z,19.20
2017-10-05T07:19:27.142Z,19.20
2017-10-05T07:20:32.307Z,19.20
2017-10-05T07:21:37.484Z,19.20
2017-10-05T07:22:42.776Z,19.20
2017-10-05T07:23:47.922Z,19.20
2017-10-05T07:24:53.012Z,19.20
2017-10-05T07:25:57.958Z,19.20
2017-10-05T07:27:03.781Z,19.30
2017-10-05T07:28:08.893Z,19.20
2017-10-05T07:29:13.926Z,19.30
2017-10-05T07:30:19.644Z,19.30
2017-10-05T07:31:24.813Z,19.30
2017-10-05T07:32:30.038Z,19.30
2017-10-05T07:33:34.921Z,19.30
2017-10-05T07:34:40.395Z,19.30
2017-10-05T07:35:45.359Z,19.40
2017-10-05T07:36:50.685Z,19.40
2017-10-05T07:37:56.721Z,19.50
2017-10-05T07:39:02.157Z,19.60
2017-10-05T07:40:08.096Z,19.60
2017-10-05T07:41:13.335Z,19.70
2017-10-05T07:42:19.062Z,19.80
2017-10-05T07:43:25.029Z,19.90
2017-10-05T07:44:30.979Z,20.00
2017-10-05T07:45:36.405Z,20.00
2017-10-05T07:46:41.905Z,20.10
2017-10-05T07:47:47.030Z,20.20
2017-10-05T07:48:52.361Z,20.30
2017-10-05T07:49:57.820Z,20.30
2017-10-05T07:51:02.970Z,20.30
2017-10-05T07:52:08.206Z,20.30
2017-10-05T07:53:13.362Z,20.40
2017-10-05T07:54:18.534Z,20.40
2017-10-05T07:55:23.789Z,20.50
2017-10-05T07:56:29.220Z,20.50
2017-10-05T07:57:34.478Z,20.60
2017-10-05T07:58:39.842Z,20.60
2017-10-05T07:59:45.006Z,20.60
2017-10-05T08:00:53.454Z,20.70
2017-10-05T08:01:58.553Z,20.70
2017-10-05T08:03:03.823Z,20.60
2017-10-05T08:04:09.027Z,20.70
2017-10-05T08:05:14.318Z,20.70
2017-10-05T08:06:19.281Z,20.70
2017-10-05T08:07:24.316Z,20.70
2017-10-05T08:08:29.778Z,20.70
2017-10-05T08:09:35.437Z,20.70
2017-10-05T08:10:40.837Z,20.60
2017-10-05T08:11:46.049Z,20.60
2017-10-05T08:12:51.213Z,20.50
2017-10-05T08:13:56.427Z,20.60
2017-10-05T08:15:01.698Z,20.60
2017-10-05T08:16:06.916Z,20.50
2017-10-05T08:17:11.942Z,20.50
2017-10-05T08:18:17.383Z,20.60
2017-10-05T08:19:22.630Z,20.60
2017-10-05T08:20:27.730Z,20.50
2017-10-05T08:21:32.793Z,20.50
2017-10-05T08:22:37.819Z,20.50
2017-10-05T08:23:43.033Z,20.50
2017-10-05T08:24:47.978Z,20.40
2017-10-05T08:25:52.775Z,20.50
2017-10-05T08:26:57.922Z,20.40
2017-10-05T08:28:03.098Z,20.50
2017-10-05T08:29:08.482Z,20.60
2017-10-05T08:30:13.893Z,20.50
2017-10-05T08:31:19.073Z,20.50
2017-10-05T08:32:24.408Z,20.50
2017-10-05T08:33:29.512Z,20.40
2017-10-05T08:34:34.696Z,20.50
2017-10-05T08:35:40.082Z,20.40
2017-10-05T08:36:45.102Z,20.40
2017-10-05T08:37:50.145Z,20.40
2017-10-05T08:38:55.228Z,20.40
2017-10-05T08:40:00.279Z,20.40
2017-10-05T08:41:05.446Z,20.40
2017-10-05T08:42:10.701Z,20.40
2017-10-05T08:43:15.677Z,20.40
2017-10-05T08:44:20.870Z,20.30
2017-10-05T08:45:26.300Z,20.40
2017-10-05T08:46:31.893Z,20.30
2017-10-05T08:47:37.105Z,20.30
2017-10-05T08:48:42.381Z,20.30
2017-10-05T08:49:48.144Z,20.30
2017-10-05T08:50:53.534Z,20.30
2017-10-05T08:51:58.812Z,20.30
2017-10-05T08:53:04.206Z,20.30
2017-10-05T08:54:09.398Z,20.30
2017-10-05T08:55:14.718Z,20.20
2017-10-05T08:56:19.969Z,20.20
2017-10-05T08:57:25.467Z,20.20
2017-10-05T08:58:30.781Z,20.20
2017-10-05T08:59:36.672Z,20.20
2017-10-05T09:00:42.112Z,20.20
2017-10-05T09:01:47.524Z,20.20
2017-10-05T09:02:53.129Z,20.20
2017-10-05T09:03:58.635Z,20.20
2017-10-05T09:05:03.997Z,20.10
2017-10-05T09:06:09.451Z,20.20
2017-10-05T09:07:14.645Z,20.20
2017-10-05T09:08:19.878Z,20.10
2017-10-05T09:09:25.223Z,20.20
2017-10-05T09:10:30.649Z,20.10
2017-10-05T09:11:36.107Z,20.20
2017-10-05T09:12:41.718Z,20.20
2017-10-05T09:13:46.875Z,20.10
2017-10-05T09:14:52.772Z,20.20
2017-10-05T09:15:58.090Z,20.20
2017-10-05T09:17:03.435Z,20.10
2017-10-05T09:18:08.702Z,20.10
2017-10-05T09:19:13.867Z,20.10
2017-10-05T09:20:19.100Z,20.10
2017-10-05T09:21:27.026Z,20.00
2017-10-05T09:22:32.927Z,20.10
2017-10-05T09:23:38.515Z,20.10
2017-10-05T09:24:44.322Z,20.00
2017-10-05T09:25:49.490Z,20.10
2017-10-05T09:26:54.495Z,20.10
2017-10-05T09:27:59.767Z,20.10
2017-10-05T09:29:05.147Z,20.10
2017-10-05T09:30:10.294Z,20.10
2017-10-05T09:31:15.383Z,20.00
2017-10-05T09:32:20.703Z,20.10
2017-10-05T09:33:26.126Z,20.10
2017-10-05T09:34:31.349Z,20.10
2017-10-05T09:35:36.529Z,20.10
2017-10-05T09:36:41.621Z,20.10
2017-10-05T09:37:46.613Z,20.10
2017-10-05T09:38:51.686Z,20.10
2017-10-05T09:39:56.694Z,20.10
2017-10-05T09:41:01.667Z,20.10
2017-10-05T09:42:06.846Z,20.10
2017-10-05T09:43:11.974Z,20.10
2017-10-05T09:44:17.198Z,20.10
2017-10-05T09:45:22.636Z,20.10
2017-10-05T09:46:27.910Z,20.10
2017-10-05T09:47:32.957Z,20.10
2017-10-05T09:48:38.108Z,20.10
2017-10-05T09:49:43.216Z,20.10
2017-10-05T09:50:48.699Z,20.10
2017-10-05T09:51:53.968Z,20.10
2017-10-05T09:52:59.155Z,20.10
2017-10-05T09:54:04.476Z,20.10
2017-10-05T09:55:09.624Z,20.10
2017-10-05T09:56:14.548Z,20.10
2017-10-05T09:57:19.569Z,20.10
2017-10-05T09:58:24.782Z,20.10
2017-10-05T09:59:29.930Z,20.10
2017-10-05T10:00:35.091Z,20.20
2017-10-05T10:01:40.025Z,20.20
2017-10-05T10:02:45.122Z,20.20
2017-10-05T10:03:50.138Z,20.20
2017-10-05T10:04:55.336Z,20.20
2017-10-05T10:06:00.667Z,20.10
2017-10-05T10:07:06.899Z,20.10
2017-10-05T10:08:12.127Z,20.10
2017-10-05T10:09:17.387Z,20.10
2017-10-05T10:10:22.514Z,20.10
2017-10-05T10:11:27.939Z,20.00
2017-10-05T10:12:33.396Z,20.10
2017-10-05T10:13:38.770Z,20.00
2017-10-05T10:14:44.192Z,20.00
2017-10-05T10:15:49.496Z,20.00
2017-10-05T10:16:54.684Z,20.00
2017-10-05T10:18:00.220Z,20.00
2017-10-05T10:19:08.266Z,20.00
2017-10-05T10:20:13.993Z,20.00
2017-10-05T10:21:19.255Z,20.00
2017-10-05T10:22:24.523Z,20.10
2017-10-05T10:23:29.814Z,20.10
2017-10-05T10:24:34.796Z,20.10
2017-10-05T10:25:39.909Z,20.00
2017-10-05T10:26:45.215Z,20.10
2017-10-05T10:27:50.239Z,20.10
2017-10-05T10:28:55.689Z,20.10
2017-10-05T10:30:00.904Z,20.10
2017-10-05T10:31:06.094Z,20.10
2017-10-05T10:32:11.355Z,20.10
2017-10-05T10:33:19.529Z,20.00
2017-10-05T10:34:25.256Z,20.00
2017-10-05T10:35:30.558Z,20.00
2017-10-05T10:36:35.818Z,20.00
2017-10-05T10:37:41.081Z,19.90
2017-10-05T10:38:46.437Z,19.90
2017-10-05T10:39:51.888Z,19.90
2017-10-05T10:40:56.914Z,19.90
2017-10-05T10:42:02.152Z,19.90
2017-10-05T10:43:07.212Z,19.90
2017-10-05T10:44:12.481Z,19.90
2017-10-05T10:45:17.914Z,19.90
2017-10-05T10:46:23.109Z,19.80
2017-10-05T10:47:28.374Z,19.80
2017-10-05T10:48:33.724Z,19.80
2017-10-05T10:49:38.957Z,19.80
2017-10-05T10:50:44.161Z,19.80
2017-10-05T10:51:49.437Z,19.80
2017-10-05T10:52:54.812Z,19.80
2017-10-05T10:54:00.295Z,19.80
2017-10-05T10:55:05.592Z,19.80
2017-10-05T10:56:10.969Z,19.80
2017-10-05T10:57:16.324Z,19.80
2017-10-05T10:58:21.742Z,19.80
2017-10-05T10:59:27.018Z,19.80
2017-10-05T11:00:32.825Z,19.80
2017-10-05T11:01:38.157Z,19.80
2017-10-05T11:02:44.066Z,19.80
2017-10-05T11:03:49.232Z,19.80
2017-10-05T11:04:54.907Z,19.80
2017-10-05T11:06:00.315Z,19.80
2017-10-05T11:07:05.778Z,19.80
2017-10-05T11:08:11.339Z,19.90
2017-10-05T11:09:16.784Z,19.80
2017-10-05T11:10:22.335Z,19.90
2017-10-05T11:11:27.594Z,19.80
2017-10-05T11:12:33.024Z,19.80
2017-10-05T11:13:38.279Z,19.90
2017-10-05T11:14:43.523Z,19.90
2017-10-05T11:15:48.767Z,19.90
2017-10-05T11:16:53.876Z,19.90
2017-10-05T11:17:59.220Z,19.80
2017-10-05T11:19:04.514Z,19.80
2017-10-05T11:20:10.495Z,19.80
2017-10-05T11:21:15.977Z,19.80
2017-10-05T11:22:21.262Z,19.80
2017-10-05T11:23:26.606Z,19.80
2017-10-05T11:24:31.934Z,19.80
2017-10-05T11:25:37.779Z,19.80
2017-10-05T11:26:43.254Z,19.80
2017-10-05T11:27:48.693Z,19.80
2017-10-05T11:28:54.194Z,19.80
2017-10-05T11:30:00.287Z,19.90
2017-10-05T11:31:05.964Z,19.90
2017-10-05T11:32:11.530Z,19.90
2017-10-05T11:33:17.124Z,19.90
2017-10-05T11:34:22.718Z,19.90
2017-10-05T11:35:28.242Z,19.80
2017-10-05T11:36:33.788Z,19.90
2017-10-05T11:37:39.263Z,19.90
2017-10-05T11:38:44.740Z,19.90
2017-10-05T11:39:50.030Z,19.80
2017-10-05T11:40:55.209Z,19.90
2017-10-05T11:42:01.355Z,19.90
2017-10-05T11:43:07.774Z,19.80
2017-10-05T11:44:17.467Z,19.90
2017-10-05T11:45:23.627Z,19.90
2017-10-05T11:46:29.376Z,19.90
2017-10-05T11:47:35.488Z,19.90
2017-10-05T11:48:41.133Z,19.90
2017-10-05T11:49:47.398Z,19.90
2017-10-05T11:50:52.829Z,19.90
2017-10-05T11:51:58.225Z,19.90
2017-10-05T11:53:03.783Z,19.90
2017-10-05T11:54:09.035Z,19.90
2017-10-05T11:55:14.633Z,19.90
2017-10-05T11:56:20.311Z,20.00
2017-10-05T11:57:25.944Z,20.00
2017-10-05T11:58:31.259Z,20.00
2017-10-05T11:59:36.752Z,20.00
2017-10-05T12:00:42.435Z,20.10
2017-10-05T12:01:47.996Z,20.10
2017-10-05T12:02:53.386Z,20.10
2017-10-05T12:03:58.758Z,20.10
2017-10-05T12:05:04.174Z,20.10
2017-10-05T12:06:09.751Z,20.10
2017-10-05T12:07:15.013Z,20.20
2017-10-05T12:08:20.312Z,20.20
2017-10-05T12:09:25.800Z,20.20
2017-10-05T12:10:31.326Z,20.20
2017-10-05T12:11:36.685Z,20.20
2017-10-05T12:12:42.209Z,20.20
2017-10-05T12:13:47.479Z,20.20
2017-10-05T12:14:52.583Z,20.20
2017-10-05T12:15:57.919Z,20.10
2017-10-05T12:17:03.473Z,20.20
2017-10-05T12:18:08.933Z,20.20
2017-10-05T12:19:14.144Z,20.20
2017-10-05T12:20:19.576Z,20.20
2017-10-05T12:21:24.900Z,20.20
2017-10-05T12:22:30.262Z,20.20
2017-10-05T12:23:36.373Z,20.20
2017-10-05T12:24:41.446Z,20.20
2017-10-05T12:25:46.836Z,20.20
2017-10-05T12:26:52.097Z,20.20
2017-10-05T12:27:57.473Z,20.20
2017-10-05T12:29:03.270Z,20.20
2017-10-05T12:30:08.656Z,20.10
2017-10-05T12:31:14.095Z,20.00
2017-10-05T12:32:19.508Z,19.90
2017-10-05T12:33:25.067Z,20.00
2017-10-05T12:34:30.528Z,20.00
2017-10-05T12:35:35.874Z,20.10
2017-10-05T12:36:41.311Z,20.10
2017-10-05T12:37:46.575Z,20.10
2017-10-05T12:38:52.346Z,20.20
2017-10-05T12:39:57.728Z,20.20
2017-10-05T12:41:03.260Z,20.30
2017-10-05T12:42:08.758Z,20.30
2017-10-05T12:43:13.953Z,20.30
2017-10-05T12:44:19.636Z,20.30
2017-10-05T12:45:25.343Z,20.30
2017-10-05T12:46:30.804Z,20.40
2017-10-05T12:47:36.353Z,20.40
2017-10-05T12:48:41.818Z,20.40
2017-10-05T12:49:47.004Z,20.40
2017-10-05T12:50:52.198Z,20.40
2017-10-05T12:51:57.392Z,20.50
2017-10-05T12:53:02.924Z,20.40
2017-10-05T12:54:08.362Z,20.50
2017-10-05T12:55:14.186Z,20.50
2017-10-05T12:56:20.599Z,20.50
2017-10-05T12:57:26.180Z,20.50
2017-10-05T12:58:31.602Z,20.50
2017-10-05T12:59:37.485Z,20.50
2017-10-05T13:00:42.688Z,20.60
2017-10-05T13:01:47.958Z,20.50
2017-10-05T13:02:53.389Z,20.50
2017-10-05T13:03:58.674Z,20.50
2017-10-05T13:05:04.040Z,20.60
2017-10-05T13:06:09.453Z,20.50
2017-10-05T13:07:14.831Z,20.60
2017-10-05T13:08:20.005Z,20.60
2017-10-05T13:09:25.299Z,20.60
2017-10-05T13:10:30.880Z,20.60
2017-10-05T13:11:35.903Z,20.60
2017-10-05T13:12:41.078Z,20.60
2017-10-05T13:13:46.419Z,20.60
2017-10-05T13:14:51.873Z,20.60
2017-10-05T13:15:57.555Z,20.70
2017-10-05T13:17:03.073Z,20.70
2017-10-05T13:18:08.347Z,20.70
2017-10-05T13:19:13.580Z,20.70
2017-10-05T13:20:18.827Z,20.70
2017-10-05T13:21:24.106Z,20.70
2017-10-05T13:22:29.395Z,20.80
2017-10-05T13:23:34.898Z,20.80
2017-10-05T13:24:40.603Z,20.80
2017-10-05T13:25:46.270Z,20.80
2017-10-05T13:26:51.739Z,20.80
2017-10-05T13:27:57.221Z,20.80
2017-10-05T13:29:02.581Z,20.80
2017-10-05T13:30:08.138Z,20.90
2017-10-05T13:31:13.577Z,20.90
2017-10-05T13:32:19.338Z,20.90
2017-10-05T13:33:25.303Z,20.90
2017-10-05T13:34:30.623Z,20.90
2017-10-05T13:35:36.520Z,20.90
2017-10-05T13:36:41.661Z,20.90
2017-10-05T13:37:46.843Z,20.90
2017-10-05T13:38:52.109Z,20.90
2017-10-05T13:39:57.468Z,21.00
2017-10-05T13:41:02.886Z,21.00
2017-10-05T13:42:07.867Z,21.00
2017-10-05T13:43:13.235Z,21.00
2017-10-05T13:44:30.583Z,21.10
2017-10-05T13:45:35.749Z,21.10
2017-10-05T13:46:40.976Z,21.10
2017-10-05T13:47:46.164Z,21.20
2017-10-05T13:48:51.378Z,21.20
2017-10-05T13:49:56.435Z,21.20
2017-10-05T13:51:01.605Z,21.30
2017-10-05T13:52:06.619Z,21.30
2017-10-05T13:53:11.924Z,21.30
2017-10-05T13:54:16.861Z,21.30
2017-10-05T13:55:22.197Z,21.30
2017-10-05T13:56:27.132Z,21.30
2017-10-05T13:57:32.093Z,21.30
2017-10-05T13:58:37.115Z,21.20
2017-10-05T13:59:42.264Z,21.20